createdAt,value
2019-05-06T00:00:51.358Z,13.6
2019-05-06T00:02:06.775Z,13.9
2019-05-06T00:03:19.757Z,11.9
2019-05-06T00:04:34.217Z,13.6
2019-05-06T00:05:48.216Z,12.8
2019-05-06T00:08:16.955Z,12.6
2019-05-06T00:09:31.052Z,13.2
2019-05-06T00:10:45.345Z,13.2
2019-05-06T00:11:59.491Z,13.9
2019-05-06T00:13:14.535Z,12.5
2019-05-06T00:14:27.998Z,16.8
2019-05-06T00:15:42.179Z,13.1
2019-05-06T00:16:56.433Z,14.3
2019-05-06T00:18:10.667Z,15.5
2019-05-06T00:19:24.880Z,15.6
2019-05-06T00:20:39.197Z,15.8
2019-05-06T00:21:53.469Z,12.6
2019-05-06T00:23:07.658Z,12.4
2019-05-06T00:24:21.988Z,12.8
2019-05-06T00:25:36.110Z,13.5
2019-05-06T00:26:50.379Z,14.2
2019-05-06T00:28:04.655Z,11
2019-05-06T00:29:18.813Z,13.1
2019-05-06T00:30:33.119Z,14.4
2019-05-06T00:31:47.284Z,14.5
2019-05-06T00:33:01.497Z,13.4
2019-05-06T00:34:21.377Z,12.9
2019-05-06T00:35:29.968Z,13.8
2019-05-06T00:36:44.325Z,16
2019-05-06T00:38:01.630Z,14.5
2019-05-06T00:39:12.648Z,13.4
2019-05-06T00:40:26.873Z,14.7
2019-05-06T00:41:41.163Z,10.6
2019-05-06T00:42:55.376Z,12.9
2019-05-06T00:44:09.637Z,12.9
2019-05-06T00:46:38.173Z,13.4
2019-05-06T00:47:52.430Z,14
2019-05-06T00:50:20.898Z,15
2019-05-06T00:51:35.194Z,16.4
2019-05-06T00:52:49.309Z,11.4
2019-05-06T00:54:03.617Z,13.2
2019-05-06T00:55:20.975Z,12.5
2019-05-06T00:56:33.840Z,13
2019-05-06T00:57:46.275Z,13.7
2019-05-06T00:59:00.531Z,13.9
2019-05-06T01:00:14.993Z,14.4
2019-05-06T01:01:29.030Z,11.6
2019-05-06T01:02:43.333Z,15.1
2019-05-06T01:03:57.812Z,14
2019-05-06T01:05:11.826Z,14.3
2019-05-06T01:06:25.974Z,15.7
2019-05-06T01:07:40.246Z,17.7
2019-05-06T01:08:54.491Z,14.1
2019-05-06T01:10:08.855Z,14.9
2019-05-06T01:11:23.088Z,15.3
2019-05-06T01:12:37.209Z,13.6
2019-05-06T01:13:51.924Z,14.9
2019-05-06T01:15:05.701Z,14.5
2019-05-06T01:16:19.949Z,15.1
2019-05-06T01:17:34.188Z,13.6
2019-05-06T01:18:48.660Z,12.8
2019-05-06T01:20:02.881Z,15.7
2019-05-06T01:21:16.976Z,17.5
2019-05-06T01:22:31.267Z,13
2019-05-06T01:23:45.386Z,14.1
2019-05-06T01:24:59.703Z,14.2
2019-05-06T01:26:15.538Z,16.3
2019-05-06T01:27:28.097Z,14.4
2019-05-06T01:28:42.356Z,12.7
2019-05-06T01:30:00.854Z,13.3
2019-05-06T01:31:10.869Z,13.9
2019-05-06T01:32:25.260Z,13
2019-05-06T01:33:39.400Z,15.3
2019-05-06T01:34:53.709Z,15
2019-05-06T01:36:07.850Z,15
2019-05-06T01:37:22.068Z,14.2
2019-05-06T01:38:36.298Z,16.5
2019-05-06T01:39:50.730Z,15.7
2019-05-06T01:41:04.774Z,14.6
2019-05-06T01:42:19.024Z,13.2
2019-05-06T01:43:33.372Z,14.8
2019-05-06T01:44:47.605Z,12.8
2019-05-06T01:46:01.748Z,14.3
2019-05-06T01:47:16.004Z,16
2019-05-06T01:48:30.277Z,13.5
2019-05-06T01:49:44.563Z,13.8
2019-05-06T01:50:58.798Z,15.5
2019-05-06T01:52:12.990Z,16.5
2019-05-06T01:53:27.260Z,16.2
2019-05-06T01:54:41.560Z,12.8
2019-05-06T01:55:56.266Z,15.6
2019-05-06T01:57:09.988Z,16.1
2019-05-06T01:58:24.221Z,15.5
2019-05-06T01:59:38.463Z,15.2
2019-05-06T02:00:52.757Z,18.2
2019-05-06T02:02:07.041Z,15.1
2019-05-06T02:03:21.260Z,15
2019-05-06T02:04:35.424Z,14.7
2019-05-06T02:05:49.687Z,15.4
2019-05-06T02:07:04.064Z,18.5
2019-05-06T02:08:21.074Z,14.6
2019-05-06T02:09:32.590Z,14.6
2019-05-06T02:10:46.865Z,18.1
2019-05-06T02:12:00.861Z,14.4
2019-05-06T02:13:15.219Z,16.6
2019-05-06T02:14:29.335Z,16.9
2019-05-06T02:15:43.640Z,18.8
2019-05-06T02:16:57.835Z,15.9
2019-05-06T02:18:12.173Z,18.6
2019-05-06T02:19:26.351Z,15.2
2019-05-06T02:20:40.661Z,15.9
2019-05-06T02:21:54.825Z,18.4
2019-05-06T02:23:09.070Z,15.4
2019-05-06T02:24:23.326Z,18.1
2019-05-06T02:26:52.039Z,15.9
2019-05-06T02:28:06.064Z,19.6
2019-05-06T02:29:21.347Z,16
2019-05-06T02:30:34.543Z,18
2019-05-06T02:31:48.800Z,15.7
2019-05-06T02:33:05.775Z,16.1
2019-05-06T02:34:17.284Z,18.9
2019-05-06T02:35:31.524Z,18
2019-05-06T02:36:45.765Z,19.2
2019-05-06T02:38:00.053Z,17.8
2019-05-06T02:39:14.393Z,16.7
2019-05-06T02:41:42.865Z,15.9
2019-05-06T02:42:56.958Z,19.2
2019-05-06T02:44:11.205Z,17
2019-05-06T02:45:25.514Z,16.7
2019-05-06T02:46:39.806Z,20
2019-05-06T02:49:08.310Z,16.7
2019-05-06T02:50:22.468Z,20
2019-05-06T02:51:36.806Z,16.9
2019-05-06T02:52:50.889Z,17.8
2019-05-06T02:54:06.027Z,20.2
2019-05-06T02:55:19.461Z,16
2019-05-06T02:56:33.690Z,19.9
2019-05-06T02:57:47.968Z,20.6
2019-05-06T02:59:02.185Z,18.5
2019-05-06T03:00:16.470Z,19.5
2019-05-06T03:01:30.586Z,18.8
2019-05-06T03:02:44.826Z,15.6
2019-05-06T03:03:59.156Z,19.1
2019-05-06T03:05:13.326Z,17.9
2019-05-06T03:06:27.593Z,18.2
2019-05-06T03:07:41.871Z,18
2019-05-06T03:08:56.103Z,17.5
2019-05-06T03:10:10.404Z,19
2019-05-06T03:11:24.542Z,18.5
2019-05-06T03:12:38.815Z,19
2019-05-06T03:13:53.091Z,18.3
2019-05-06T03:15:07.297Z,17.3
2019-05-06T03:16:21.721Z,16.3
2019-05-06T03:17:35.791Z,15
2019-05-06T03:18:50.015Z,15.6
2019-05-06T03:20:04.273Z,17.1
2019-05-06T03:21:18.501Z,14.8
2019-05-06T03:22:32.759Z,16.6
2019-05-06T03:23:46.996Z,17
2019-05-06T03:25:01.356Z,15.3
2019-05-06T03:26:17.725Z,18.6
2019-05-06T03:27:29.778Z,18.8
2019-05-06T03:28:44.008Z,16.2
2019-05-06T03:29:58.255Z,15.2
2019-05-06T03:31:12.522Z,16.7
2019-05-06T03:32:26.728Z,20.4
2019-05-06T03:33:40.975Z,15.9
2019-05-06T03:34:55.323Z,16.4
2019-05-06T03:36:09.452Z,15.7
2019-05-06T03:38:38.147Z,15.7
2019-05-06T03:39:52.181Z,13.8
2019-05-06T03:41:06.459Z,15.8
2019-05-06T03:42:20.654Z,15.1
2019-05-06T03:43:34.889Z,16.7
2019-05-06T03:44:49.154Z,17.5
2019-05-06T03:46:03.395Z,15.8
2019-05-06T03:47:17.801Z,15.8
2019-05-06T03:48:31.881Z,17.9
2019-05-06T03:49:46.114Z,16.8
2019-05-06T03:51:00.374Z,15.2
2019-05-06T03:52:14.785Z,18.7
2019-05-06T03:53:28.936Z,16.5
2019-05-06T03:54:43.130Z,18.9
2019-05-06T03:55:57.764Z,17.5
2019-05-06T03:57:11.597Z,15.4
2019-05-06T03:58:25.844Z,18.7
2019-05-06T03:59:40.171Z,15.9
2019-05-06T04:00:54.417Z,16.6
2019-05-06T04:02:08.569Z,17.5
2019-05-06T04:03:23.031Z,18.6
2019-05-06T04:04:37.171Z,18.2
2019-05-06T04:05:51.313Z,17.9
2019-05-06T04:08:19.804Z,22.9
2019-05-06T04:09:34.043Z,18.8
2019-05-06T04:10:48.359Z,19.4
2019-05-06T04:12:02.560Z,18
2019-05-06T04:13:16.790Z,22.6
2019-05-06T04:14:31.052Z,17.8
2019-05-06T04:15:45.302Z,19.3
2019-05-06T04:16:59.542Z,19.4
2019-05-06T04:18:13.815Z,21.9
2019-05-06T04:19:28.138Z,19.4
2019-05-06T04:20:43.186Z,20.2
2019-05-06T04:21:56.611Z,22
2019-05-06T04:23:10.761Z,20.2
2019-05-06T04:24:25.168Z,21.8
2019-05-06T04:26:53.529Z,21
2019-05-06T04:28:07.811Z,19.5
2019-05-06T04:29:22.029Z,19.4
2019-05-06T04:30:36.301Z,19.3
2019-05-06T04:31:50.577Z,23.6
2019-05-06T04:33:04.772Z,20.2
2019-05-06T04:34:19.011Z,20.6
2019-05-06T04:35:33.442Z,20.9
2019-05-06T04:36:47.512Z,23.3
2019-05-06T04:38:01.884Z,20.1
2019-05-06T04:39:16.040Z,18.4
2019-05-06T04:40:30.349Z,18
2019-05-06T04:41:45.117Z,19.5
2019-05-06T04:42:58.825Z,18.4
2019-05-06T04:44:12.992Z,18
2019-05-06T04:45:27.247Z,18.6
2019-05-06T04:46:41.526Z,16.3
2019-05-06T04:47:55.758Z,20.6
2019-05-06T04:49:10.008Z,16.1
2019-05-06T04:50:24.425Z,18.8
2019-05-06T04:52:52.729Z,15.8
2019-05-06T04:54:07.078Z,15
2019-05-06T04:55:22.184Z,16.4
2019-05-06T04:57:49.808Z,16.1
2019-05-06T04:59:03.853Z,16.1
2019-05-06T05:00:18.101Z,14.8
2019-05-06T05:01:32.382Z,17.5
2019-05-06T05:02:47.064Z,18.6
2019-05-06T05:04:00.785Z,17.2
2019-05-06T05:05:14.977Z,17.9
2019-05-06T05:06:29.227Z,14.7
2019-05-06T05:07:44.290Z,15.7
2019-05-06T05:08:57.842Z,13.6
2019-05-06T05:10:11.999Z,15.4
2019-05-06T05:11:26.276Z,14.3
2019-05-06T05:12:40.473Z,15.9
2019-05-06T05:13:54.588Z,15.3
2019-05-06T05:15:08.875Z,16.1
2019-05-06T05:16:23.247Z,18.3
2019-05-06T05:17:37.387Z,13.8
2019-05-06T05:18:51.695Z,14.7
2019-05-06T05:20:05.780Z,15.5
2019-05-06T05:22:34.339Z,15.6
2019-05-06T05:23:48.362Z,18.1
2019-05-06T05:25:02.613Z,15.5
2019-05-06T05:26:27.819Z,15.3
2019-05-06T05:27:31.137Z,16
2019-05-06T05:28:45.441Z,15.9
2019-05-06T05:29:59.517Z,15.3
2019-05-06T05:31:13.777Z,15.7
2019-05-06T05:32:27.990Z,15.9
2019-05-06T05:33:42.518Z,14.8
2019-05-06T05:34:56.410Z,16.1
2019-05-06T05:36:10.572Z,15.8
2019-05-06T05:37:24.965Z,16
2019-05-06T05:38:39.694Z,16.7
2019-05-06T05:39:53.221Z,13
2019-05-06T05:41:07.654Z,16.1
2019-05-06T05:42:21.842Z,14.9
2019-05-06T05:43:36.124Z,14.3
2019-05-06T05:44:50.186Z,15.9
2019-05-06T05:46:04.387Z,15.6
2019-05-06T05:47:18.604Z,13.9
2019-05-06T05:48:32.809Z,15.4
2019-05-06T05:49:46.992Z,14.9
2019-05-06T05:51:01.283Z,15.5
2019-05-06T05:52:20.640Z,14.7
2019-05-06T05:53:29.613Z,15.2
2019-05-06T05:54:43.938Z,15.5
2019-05-06T05:55:59.008Z,13.3
2019-05-06T05:57:12.240Z,15.5
2019-05-06T05:59:40.664Z,14.1
2019-05-06T06:00:54.851Z,16.2
2019-05-06T06:02:09.093Z,15
2019-05-06T06:03:23.247Z,14.7
2019-05-06T06:04:37.562Z,13
2019-05-06T06:05:51.704Z,15.8
2019-05-06T06:07:05.892Z,14.9
2019-05-06T06:08:20.132Z,14.9
2019-05-06T06:09:34.273Z,15
2019-05-06T06:10:48.497Z,13.1
2019-05-06T06:12:02.838Z,15.6
2019-05-06T06:13:17.114Z,13.9
2019-05-06T06:14:31.119Z,16.7
2019-05-06T06:15:45.277Z,15.1
2019-05-06T06:16:59.612Z,13.8
2019-05-06T06:18:13.674Z,14.5
2019-05-06T06:19:28.003Z,13.6
2019-05-06T06:20:42.111Z,14.7
2019-05-06T06:21:56.283Z,14.8
2019-05-06T06:23:10.478Z,18.2
2019-05-06T06:24:24.744Z,17.4
2019-05-06T06:25:38.891Z,16.9
2019-05-06T06:26:53.101Z,14.3
2019-05-06T06:28:07.297Z,15.9
2019-05-06T06:29:21.629Z,16
2019-05-06T06:30:35.820Z,14.7
2019-05-06T06:31:49.891Z,14.8
2019-05-06T06:33:04.142Z,13.7
2019-05-06T06:34:18.264Z,12.5
2019-05-06T06:35:32.485Z,14.3
2019-05-06T06:36:46.643Z,15.3
2019-05-06T06:38:00.839Z,16.1
2019-05-06T06:39:15.059Z,14.7
2019-05-06T06:40:29.349Z,15.2
2019-05-06T06:41:43.564Z,15.2
2019-05-06T06:42:57.559Z,14.6
2019-05-06T06:44:11.871Z,15.1
2019-05-06T06:45:25.951Z,16.6
2019-05-06T06:46:40.153Z,13.6
2019-05-06T06:49:08.561Z,14.1
2019-05-06T06:50:22.780Z,16
2019-05-06T06:51:36.834Z,14.4
2019-05-06T06:52:50.996Z,14.3
2019-05-06T06:54:05.196Z,12.2
2019-05-06T06:55:19.444Z,14.4
2019-05-06T06:56:33.646Z,14.9
2019-05-06T06:57:47.680Z,13.3
2019-05-06T06:59:01.857Z,15.7
2019-05-06T07:01:30.175Z,12.7
2019-05-06T07:02:44.331Z,15.5
2019-05-06T07:03:58.547Z,12.5
2019-05-06T07:05:12.736Z,13.2
2019-05-06T07:06:26.885Z,13.4
2019-05-06T07:07:41.005Z,12.6
2019-05-06T07:08:55.202Z,13.4
2019-05-06T07:10:10.325Z,12.8
2019-05-06T07:11:23.466Z,13.9
2019-05-06T07:12:37.654Z,13.1
2019-05-06T07:13:51.998Z,11.8
2019-05-06T07:15:05.907Z,12.3
2019-05-06T07:16:20.073Z,11.8
2019-05-06T07:17:34.193Z,12
2019-05-06T07:18:48.400Z,14.9
2019-05-06T07:20:02.517Z,10.9
2019-05-06T07:21:16.649Z,13.2
2019-05-06T07:22:30.898Z,11.4
2019-05-06T07:23:44.988Z,13.1
2019-05-06T07:24:59.100Z,11
2019-05-06T07:27:27.376Z,12.6
2019-05-06T07:28:41.831Z,12.4
2019-05-06T07:29:55.720Z,11.3
2019-05-06T07:31:09.825Z,12.4
2019-05-06T07:32:24.005Z,10.1
2019-05-06T07:33:38.081Z,11.4
2019-05-06T07:34:52.217Z,12.8
2019-05-06T07:36:06.428Z,11.3
2019-05-06T07:37:20.571Z,12.6
2019-05-06T07:38:34.634Z,10.4
2019-05-06T07:39:48.775Z,12.7
2019-05-06T07:42:21.227Z,13.7
2019-05-06T07:43:31.221Z,11.4
2019-05-06T07:44:45.510Z,12.5
2019-05-06T07:45:59.470Z,11.1
2019-05-06T07:47:13.636Z,12.2
2019-05-06T07:48:27.729Z,9.9
2019-05-06T07:49:41.987Z,10.8
2019-05-06T07:50:55.991Z,10.5
2019-05-06T07:52:10.151Z,11.1
2019-05-06T07:53:24.264Z,13.4
2019-05-06T07:54:38.467Z,10
2019-05-06T07:57:06.740Z,13
2019-05-06T07:58:20.793Z,10.5
2019-05-06T07:59:34.896Z,11.3
2019-05-06T08:00:49.038Z,11.6
2019-05-06T08:02:03.201Z,10.4
2019-05-06T08:03:17.290Z,10.7
2019-05-06T08:04:31.453Z,8.6
2019-05-06T08:05:45.978Z,9.1
2019-05-06T08:06:59.861Z,9.4
2019-05-06T08:08:13.848Z,10.6
2019-05-06T08:09:28.034Z,11.7
2019-05-06T08:10:42.197Z,9.3
2019-05-06T08:11:56.300Z,10.2
2019-05-06T08:13:10.510Z,10.7
2019-05-06T08:15:38.784Z,9
2019-05-06T08:16:52.875Z,9.9
2019-05-06T08:18:07.355Z,8.5
2019-05-06T08:19:21.032Z,9.4
2019-05-06T08:20:35.142Z,9
2019-05-06T08:21:50.352Z,10.4
2019-05-06T08:23:03.500Z,9.1
2019-05-06T08:24:17.562Z,9
2019-05-06T08:26:48.271Z,9.4
2019-05-06T08:27:59.905Z,8
2019-05-06T08:29:14.012Z,9.3
2019-05-06T08:30:28.181Z,7.9
2019-05-06T08:31:42.254Z,8.5
2019-05-06T08:32:56.414Z,8.9
2019-05-06T08:34:10.488Z,8
2019-05-06T08:35:24.595Z,6.3
2019-05-06T08:36:38.723Z,6.3
2019-05-06T08:37:52.902Z,7.9
2019-05-06T08:39:07.059Z,8.1
2019-05-06T08:40:21.125Z,7.1
2019-05-06T08:41:35.247Z,7.2
2019-05-06T08:42:49.342Z,7.4
2019-05-06T08:44:03.499Z,7.8
2019-05-06T08:45:17.627Z,5.8
2019-05-06T08:46:31.786Z,5.9
2019-05-06T08:47:45.929Z,5.3
2019-05-06T08:48:59.991Z,7.3
2019-05-06T08:50:14.103Z,6.9
2019-05-06T08:51:28.235Z,5.9
2019-05-06T08:52:42.348Z,6.9
2019-05-06T08:53:56.513Z,7
2019-05-06T08:55:10.505Z,7.6
2019-05-06T08:56:28.748Z,6.2
2019-05-06T08:57:38.891Z,5.9
2019-05-06T08:58:53.641Z,4.7
2019-05-06T09:00:06.856Z,4.6
2019-05-06T09:01:21.007Z,6.1
2019-05-06T09:02:35.045Z,5.2
2019-05-06T09:03:49.131Z,5.8
2019-05-06T09:05:03.216Z,5.7
2019-05-06T09:06:17.143Z,5.2
2019-05-06T09:07:31.216Z,5.4
2019-05-06T09:08:45.258Z,5.2
2019-05-06T09:09:59.417Z,5.6
2019-05-06T09:12:27.769Z,4.9
2019-05-06T09:13:41.572Z,4.4
2019-05-06T09:14:55.787Z,6.4
2019-05-06T09:16:09.660Z,5
2019-05-06T09:17:23.721Z,3.8
2019-05-06T09:18:37.798Z,4.7
2019-05-06T09:19:52.120Z,6.3
2019-05-06T09:21:05.873Z,5.7
2019-05-06T09:22:23.784Z,5.5
2019-05-06T09:23:34.096Z,4.4
2019-05-06T09:24:48.052Z,4.3
2019-05-06T09:26:05.779Z,3.5
2019-05-06T09:27:16.285Z,2.7
2019-05-06T09:28:30.269Z,3.2
2019-05-06T09:29:44.274Z,5.6
2019-05-06T09:30:58.457Z,5.2
2019-05-06T09:32:13.226Z,4.3
2019-05-06T09:33:26.563Z,5.7
2019-05-06T09:34:40.617Z,5.2
2019-05-06T09:35:54.524Z,4.3
2019-05-06T09:37:08.627Z,4.6
2019-05-06T09:38:22.690Z,4.5
2019-05-06T09:39:36.854Z,4.1
2019-05-06T09:40:50.773Z,4.4
2019-05-06T09:42:05.112Z,6.2
2019-05-06T09:43:18.860Z,5.4
2019-05-06T09:44:32.909Z,5.3
2019-05-06T09:45:47.180Z,4.3
2019-05-06T09:47:01.009Z,4.4
2019-05-06T09:48:15.288Z,5.7
2019-05-06T09:49:29.119Z,5.3
2019-05-06T09:50:43.235Z,5.2
2019-05-06T09:51:57.369Z,5.7
2019-05-06T09:53:11.485Z,4.1
2019-05-06T09:54:25.390Z,4.4
2019-05-06T09:56:57.745Z,5.1
2019-05-06T09:58:07.793Z,4.5
2019-05-06T10:00:36.256Z,4.3
2019-05-06T10:01:49.802Z,3.4
2019-05-06T10:03:03.876Z,3.3
2019-05-06T10:04:17.871Z,3.1
2019-05-06T10:05:31.980Z,4.8
2019-05-06T10:06:46.192Z,4.5
2019-05-06T10:08:00.013Z,4.1
2019-05-06T10:09:14.068Z,3.7
2019-05-06T10:10:28.124Z,4.9
2019-05-06T10:11:42.204Z,4.5
2019-05-06T10:12:56.340Z,4.8
2019-05-06T10:14:10.326Z,4.5
2019-05-06T10:15:24.402Z,5.1
2019-05-06T10:16:38.434Z,3.7
2019-05-06T10:17:52.778Z,5
2019-05-06T10:19:06.801Z,5
2019-05-06T10:20:20.733Z,4.5
2019-05-06T10:21:34.753Z,3.9
2019-05-06T10:22:49.273Z,5.3
2019-05-06T10:24:02.937Z,4.4
2019-05-06T10:25:17.218Z,7
2019-05-06T10:27:45.165Z,5.1
2019-05-06T10:28:59.284Z,4.5
2019-05-06T10:30:13.488Z,5.7
2019-05-06T10:31:27.539Z,4.8
2019-05-06T10:32:41.537Z,4.2
2019-05-06T10:33:55.663Z,5.4
2019-05-06T10:35:09.705Z,4.6
2019-05-06T10:36:23.797Z,4.5
2019-05-06T10:37:37.953Z,5.7
2019-05-06T10:38:53.203Z,5.2
2019-05-06T10:40:06.137Z,5.5
2019-05-06T10:41:20.367Z,4.6
2019-05-06T10:42:34.317Z,6.2
2019-05-06T10:43:48.397Z,4.5
2019-05-06T10:45:02.508Z,5
2019-05-06T10:46:16.667Z,4.4
2019-05-06T10:47:30.674Z,6.1
2019-05-06T10:48:44.761Z,6.4
2019-05-06T10:49:59.016Z,5.8
2019-05-06T10:51:13.020Z,5.3
2019-05-06T10:52:27.074Z,5.5
2019-05-06T10:53:41.162Z,5.6
2019-05-06T10:54:58.016Z,4.4
2019-05-06T10:57:23.546Z,6
2019-05-06T10:58:37.625Z,5.3
2019-05-06T10:59:51.824Z,5.9
2019-05-06T11:01:05.815Z,6.6
2019-05-06T11:02:19.831Z,6.1
2019-05-06T11:03:34.447Z,5
2019-05-06T11:04:48.124Z,6.2
2019-05-06T11:06:02.083Z,4.9
2019-05-06T11:07:16.189Z,5.6
2019-05-06T11:08:30.275Z,4.1
2019-05-06T11:09:44.372Z,4.7
2019-05-06T11:10:58.459Z,4.5
2019-05-06T11:12:12.632Z,5.1
2019-05-06T11:13:26.625Z,6.1
2019-05-06T11:14:40.728Z,6
2019-05-06T11:15:54.856Z,5.5
2019-05-06T11:17:08.939Z,6.4
2019-05-06T11:18:23.670Z,6.6
2019-05-06T11:19:37.192Z,8
2019-05-06T11:20:51.389Z,5.8
2019-05-06T11:22:06.768Z,6.3
2019-05-06T11:23:19.693Z,6.4
2019-05-06T11:24:34.660Z,6.4
2019-05-06T11:25:47.955Z,5.6
2019-05-06T11:27:01.914Z,6.6
2019-05-06T11:28:16.017Z,7.1
2019-05-06T11:29:30.191Z,6.9
2019-05-06T11:30:44.260Z,5.9
2019-05-06T11:33:12.459Z,4.6
2019-05-06T11:34:26.558Z,4.9
2019-05-06T11:35:40.738Z,6.7
2019-05-06T11:36:54.848Z,5.7
2019-05-06T11:38:09.001Z,4.5
2019-05-06T11:39:23.067Z,6.1
2019-05-06T11:40:37.126Z,6.3
2019-05-06T11:41:51.289Z,6.6
2019-05-06T11:43:05.383Z,6.8
2019-05-06T11:44:19.511Z,6.2
2019-05-06T11:45:33.589Z,5.8
2019-05-06T11:46:47.711Z,6.2
2019-05-06T11:48:01.986Z,6.8
2019-05-06T11:49:15.948Z,6.2
2019-05-06T11:50:30.099Z,5.7
2019-05-06T11:51:44.184Z,6.5
2019-05-06T11:52:58.247Z,6.4
2019-05-06T11:54:12.454Z,6.6
2019-05-06T11:55:26.801Z,6
2019-05-06T11:56:40.702Z,5.9
2019-05-06T11:57:54.784Z,6.9
2019-05-06T11:59:08.921Z,6.1
2019-05-06T12:00:23.087Z,5.5
2019-05-06T12:01:37.247Z,6.3
2019-05-06T12:02:51.314Z,5.5
2019-05-06T12:04:05.391Z,5.8
2019-05-06T12:05:19.589Z,5.9
2019-05-06T12:06:33.643Z,6.8
2019-05-06T12:07:47.909Z,5.6
2019-05-06T12:09:01.982Z,6.4
2019-05-06T12:10:16.151Z,5.1
2019-05-06T12:12:44.376Z,6.4
2019-05-06T12:13:58.474Z,9.1
2019-05-06T12:15:12.595Z,6.9
2019-05-06T12:16:26.809Z,6.2
2019-05-06T12:17:41.247Z,6
2019-05-06T12:18:54.952Z,6.9
2019-05-06T12:20:09.092Z,8
2019-05-06T12:21:23.151Z,8.1
2019-05-06T12:22:37.255Z,7.2
2019-05-06T12:23:51.498Z,8
2019-05-06T12:25:05.494Z,7.3
2019-05-06T12:26:20.728Z,7.4
2019-05-06T12:27:33.733Z,6.8
2019-05-06T12:28:47.885Z,6.7
2019-05-06T12:30:02.248Z,6.4
2019-05-06T12:31:16.107Z,7.7
2019-05-06T12:32:30.236Z,7.8
2019-05-06T12:33:44.365Z,7.8
2019-05-06T12:34:58.499Z,8.7
2019-05-06T12:36:12.610Z,7.2
2019-05-06T12:37:26.723Z,7.9
2019-05-06T12:38:41.324Z,8.5
2019-05-06T12:39:55.006Z,6.8
2019-05-06T12:41:09.066Z,6.8
2019-05-06T12:42:23.213Z,8.5
2019-05-06T12:43:38.220Z,8
2019-05-06T12:44:51.576Z,8.7
2019-05-06T12:46:05.496Z,8.1
2019-05-06T12:47:19.608Z,8.1
2019-05-06T12:48:33.668Z,6.1
2019-05-06T12:49:50.550Z,6.4
2019-05-06T12:51:04.481Z,8.3
2019-05-06T12:52:15.918Z,8
2019-05-06T12:53:30.063Z,7.3
2019-05-06T12:54:44.183Z,7.8
2019-05-06T12:56:01.526Z,7.8
2019-05-06T12:57:12.306Z,9
2019-05-06T12:58:26.331Z,8.6
2019-05-06T13:00:54.534Z,8.8
2019-05-06T13:02:08.639Z,8.6
2019-05-06T13:03:22.916Z,7.6
2019-05-06T13:04:36.934Z,7.1
2019-05-06T13:05:50.981Z,8.8
2019-05-06T13:07:05.181Z,6.8
2019-05-06T13:08:19.273Z,7.5
2019-05-06T13:09:33.456Z,6.9
2019-05-06T13:12:01.642Z,6.7
2019-05-06T13:13:15.962Z,9.3
2019-05-06T13:14:29.928Z,6.9
2019-05-06T13:15:43.929Z,8.2
2019-05-06T13:16:58.094Z,7.3
2019-05-06T13:18:12.233Z,6.6
2019-05-06T13:19:26.444Z,6.7
2019-05-06T13:21:54.710Z,9.2
2019-05-06T13:23:08.760Z,8.7
2019-05-06T13:24:22.904Z,7.5
2019-05-06T13:25:37.578Z,6.9
2019-05-06T13:26:51.103Z,7.3
2019-05-06T13:28:05.161Z,7.3
2019-05-06T13:30:33.363Z,7.1
2019-05-06T13:31:47.564Z,7.9
2019-05-06T13:33:01.616Z,9.3
2019-05-06T13:34:15.737Z,10.2
2019-05-06T13:35:29.854Z,12.7
2019-05-06T13:36:44.255Z,9.4
2019-05-06T13:37:58.368Z,9.7
2019-05-06T13:39:12.288Z,8.9
2019-05-06T13:40:26.441Z,9.6
2019-05-06T13:41:40.531Z,7.9
2019-05-06T13:42:54.667Z,8.7
2019-05-06T13:44:08.844Z,9.2
2019-05-06T13:45:23.123Z,9.9
2019-05-06T13:46:37.108Z,8.9
2019-05-06T13:47:51.408Z,8.6
2019-05-06T13:49:05.457Z,8.1
2019-05-06T13:50:19.559Z,7.4
2019-05-06T13:51:33.683Z,7.7
2019-05-06T13:52:47.988Z,9.5
2019-05-06T13:54:01.995Z,9
2019-05-06T13:55:16.109Z,9.3
2019-05-06T13:56:30.269Z,9.1
2019-05-06T13:57:44.476Z,9.4
2019-05-06T13:58:58.532Z,9.4
2019-05-06T14:00:12.685Z,10.4
2019-05-06T14:01:26.995Z,9.6
2019-05-06T14:02:41.389Z,9.8
2019-05-06T14:03:55.153Z,11
2019-05-06T14:05:09.366Z,10.6
2019-05-06T14:06:23.444Z,10.5
2019-05-06T14:07:37.579Z,10.7
2019-05-06T14:08:51.893Z,10.3
2019-05-06T14:11:22.756Z,11.7
2019-05-06T14:12:37.145Z,11.1
2019-05-06T14:13:48.415Z,11.6
2019-05-06T14:15:02.503Z,12.7
2019-05-06T14:16:16.596Z,12.1
2019-05-06T14:17:30.656Z,12.3
2019-05-06T14:18:44.879Z,12.2
2019-05-06T14:21:13.079Z,13.6
2019-05-06T14:22:27.228Z,13.8
2019-05-06T14:23:41.393Z,12.7
2019-05-06T14:24:55.533Z,13.2
2019-05-06T14:26:10.383Z,13.1
2019-05-06T14:27:23.894Z,12.4
2019-05-06T14:29:52.215Z,12.7
2019-05-06T14:31:06.272Z,12.6
2019-05-06T14:32:20.408Z,13.1
2019-05-06T14:33:34.627Z,12.8
2019-05-06T14:34:48.726Z,13.6
2019-05-06T14:36:02.851Z,12.9
2019-05-06T14:37:17.006Z,12.6
2019-05-06T14:38:31.099Z,14.5
2019-05-06T14:39:45.301Z,13.3
2019-05-06T14:40:59.793Z,13.7
2019-05-06T14:42:13.551Z,13.5
2019-05-06T14:43:27.596Z,13.1
2019-05-06T14:44:41.777Z,12.6
2019-05-06T14:45:55.866Z,12.8
2019-05-06T14:47:10.000Z,12
2019-05-06T14:48:24.104Z,12.6
2019-05-06T14:49:38.271Z,12.7
2019-05-06T14:50:52.394Z,11.9
2019-05-06T14:52:06.756Z,12.9
2019-05-06T14:53:20.721Z,11.7
2019-05-06T14:54:34.860Z,11.4
2019-05-06T14:55:49.462Z,11.9
2019-05-06T14:57:03.133Z,12.1
2019-05-06T14:58:17.344Z,11.2
2019-05-06T14:59:31.440Z,11.4
2019-05-06T15:00:45.575Z,11.2
2019-05-06T15:03:13.977Z,11
2019-05-06T15:04:28.043Z,11
2019-05-06T15:05:42.289Z,10.7
2019-05-06T15:06:56.383Z,10.4
2019-05-06T15:08:10.549Z,9.9
2019-05-06T15:09:24.643Z,10
2019-05-06T15:10:38.799Z,10
2019-05-06T15:11:53.128Z,10.1
2019-05-06T15:13:07.086Z,9.9
2019-05-06T15:14:21.247Z,10.4
2019-05-06T15:15:35.437Z,9.8
2019-05-06T15:16:49.540Z,10
2019-05-06T15:18:03.795Z,9.3
2019-05-06T15:19:17.888Z,9.1
2019-05-06T15:20:32.085Z,9.4
2019-05-06T15:21:46.158Z,9.5
2019-05-06T15:23:00.335Z,9.5
2019-05-06T15:24:14.499Z,9.5
2019-05-06T15:25:36.308Z,9.1
2019-05-06T15:26:43.598Z,9.5
2019-05-06T15:29:11.205Z,9
2019-05-06T15:30:30.011Z,8.9
2019-05-06T15:31:39.425Z,8.1
2019-05-06T15:32:53.589Z,7.1
2019-05-06T15:34:07.828Z,6.8
2019-05-06T15:35:21.932Z,6.9
2019-05-06T15:36:36.112Z,6.6
2019-05-06T15:37:50.250Z,6.4
2019-05-06T15:39:04.481Z,7.2
2019-05-06T15:40:18.585Z,7.5
2019-05-06T15:41:32.772Z,7.6
2019-05-06T15:42:47.021Z,7.2
2019-05-06T15:44:01.104Z,7.8
2019-05-06T15:45:15.367Z,7.7
2019-05-06T15:46:29.450Z,7.7
2019-05-06T15:47:43.604Z,8.4
2019-05-06T15:48:58.130Z,7.8
2019-05-06T15:50:11.976Z,7.5
2019-05-06T15:52:40.344Z,11
2019-05-06T15:53:54.483Z,8.1
2019-05-06T15:55:08.744Z,8.5
2019-05-06T15:56:25.754Z,10.2
2019-05-06T15:57:37.009Z,9.2
2019-05-06T15:58:51.221Z,8
2019-05-06T16:00:05.488Z,8.2
2019-05-06T16:01:21.721Z,11.3
2019-05-06T16:02:36.612Z,9.5
2019-05-06T16:03:47.837Z,9.7
2019-05-06T16:06:16.171Z,10.6
2019-05-06T16:07:30.489Z,10.7
2019-05-06T16:08:44.644Z,10.2
2019-05-06T16:09:58.738Z,9.9
2019-05-06T16:11:12.973Z,10.3
2019-05-06T16:12:27.065Z,10
2019-05-06T16:13:41.378Z,10.9
2019-05-06T16:14:55.569Z,11
2019-05-06T16:16:09.602Z,10.9
2019-05-06T16:17:23.792Z,11.4
2019-05-06T16:18:38.042Z,11.7
2019-05-06T16:19:52.162Z,11.6
2019-05-06T16:21:06.314Z,12.4
2019-05-06T16:22:21.402Z,11.3
2019-05-06T16:23:36.672Z,12.1
2019-05-06T16:24:48.843Z,11.9
2019-05-06T16:26:03.285Z,12.5
2019-05-06T16:27:17.260Z,11.9
2019-05-06T16:28:31.369Z,14.3
2019-05-06T16:29:45.519Z,12.1
2019-05-06T16:30:59.676Z,13.5
2019-05-06T16:32:13.852Z,13.8
2019-05-06T16:33:28.066Z,15
2019-05-06T16:34:42.334Z,14.5
2019-05-06T16:37:10.655Z,14.8
2019-05-06T16:38:24.868Z,14.6
2019-05-06T16:39:38.925Z,13.9
2019-05-06T16:40:53.324Z,14.7
2019-05-06T16:42:07.428Z,13.2
2019-05-06T16:43:21.761Z,15.9
2019-05-06T16:44:35.801Z,13.2
2019-05-06T16:45:49.886Z,13.6
2019-05-06T16:47:04.049Z,12.6
2019-05-06T16:48:18.338Z,13.4
2019-05-06T16:49:32.459Z,13.5
2019-05-06T16:50:46.667Z,13.4
2019-05-06T16:52:00.965Z,13.6
2019-05-06T16:53:15.502Z,13.9
2019-05-06T16:54:29.237Z,14.2
2019-05-06T16:55:44.171Z,15.1
2019-05-06T16:56:57.702Z,15.2
2019-05-06T16:59:25.977Z,15.8
2019-05-06T17:00:40.269Z,17
2019-05-06T17:01:54.348Z,19.5
2019-05-06T17:03:08.603Z,18.5
2019-05-06T17:04:22.939Z,19.5
2019-05-06T17:05:36.938Z,25.3
2019-05-06T17:06:51.137Z,24.5
2019-05-06T17:08:05.325Z,27.4
2019-05-06T17:09:19.639Z,27.2
2019-05-06T17:10:33.790Z,27
2019-05-06T17:11:48.099Z,30.8
2019-05-06T17:13:02.157Z,28.7
2019-05-06T17:14:16.315Z,26.1
2019-05-06T17:15:30.573Z,26.5
2019-05-06T17:16:44.786Z,26.2
2019-05-06T17:17:58.990Z,31.4
2019-05-06T17:19:13.281Z,32.6
2019-05-06T17:20:27.356Z,28.9
2019-05-06T17:21:41.672Z,31.2
2019-05-06T17:22:55.826Z,31.2
2019-05-06T17:24:10.035Z,32.7
2019-05-06T17:25:24.691Z,25.4
2019-05-06T17:26:38.509Z,28.7
2019-05-06T17:27:52.794Z,28.2
2019-05-06T17:29:07.006Z,31.8
2019-05-06T17:30:21.139Z,29.3
2019-05-06T17:31:36.626Z,31.7
2019-05-06T17:32:49.777Z,32.9
2019-05-06T17:34:03.710Z,26.8
2019-05-06T17:35:17.852Z,33.7
2019-05-06T17:36:32.167Z,35.5